Time,TemperatureF,DewpointF,PressureIn,WindDirection,WindDirectionDegrees,WindSpeedMPH,WindSpeedGustMPH,Humidity,HourlyPrecipIn,Conditions,Clouds,dailyrainin,SoftwareType,DateUTC
2013-01-20 00:13:00,55.7,25.0,30.19,ESE,113,4.0,7.0,31,0.00,,,0.00,weatherlink.com 1.10,2013-01-20 08:13:00,
2013-01-20 00:27:00,55.8,25.0,30.19,East,84,6.0,8.0,30,0.00,,,0.00,weatherlink.com 1.10,2013-01-20 08:27:00,
2013-01-20 00:42:00,55.6,24.0,30.19,NE,46,2.0,8.0,29,0.00,,,0.00,weatherlink.com 1.10,2013-01-20 08:42:00,
2013-01-20 00:57:00,55.0,23.0,30.20,NE,51,2.0,4.0,29,0.00,,,0.00,weatherlink.com 1.10,2013-01-20 08:57:00,
2013-01-20 01:12:00,54.8,20.0,30.19,East,90,2.0,4.0,26,0.00,,,0.00,weatherlink.com 1.10,2013-01-20 09:12:00,
2013-01-20 01:28:00,54.6,20.0,30.19,ENE,58,2.0,4.0,26,0.00,,,0.00,weatherlink.com 1.10,2013-01-20 09:28:00,
2013-01-20 01:43:00,55.1,20.0,30.19,NNE,33,2.0,4.0,25,0.00,,,0.00,weatherlink.com 1.10,2013-01-20 09:43:00,
2013-01-20 01:58:00,53.4,24.0,30.20,East,98,2.0,2.0,32,0.00,,,0.00,weatherlink.com 1.10,2013-01-20 09:58:00,
2013-01-20 02:13:00,52.4,22.0,30.20,SE,128,0.0,2.0,31,0.00,,,0.00,weatherlink.com 1.10,2013-01-20 10:13:00,
2013-01-20 02:28:00,52.6,22.0,30.20,SE,129,0.0,2.0,30,0.00,,,0.00,weatherlink.com 1.10,2013-01-20 10:28:00,
2013-01-20 02:58:00,50.3,25.0,30.20,SE,137,0.0,1.0,37,0.00,,,0.00,weatherlink.com 1.10,2013-01-20 10:58:00,
2013-01-20 03:13:00,46.7,34.0,30.20,SSE,150,0.0,1.0,61,0.00,,,0.00,weatherlink.com 1.10,2013-01-20 11:13:00,
2013-01-20 03:28:00,45.6,34.0,30.20,SE,129,1.0,2.0,63,0.00,,,0.00,weatherlink.com 1.10,2013-01-20 11:28:00,
2013-01-20 03:43:00,45.6,32.0,30.20,SSE,152,1.0,2.0,60,0.00,,,0.00,weatherlink.com 1.10,2013-01-20 11:43:00,
2013-01-20 03:58:00,45.7,31.0,30.19,ESE,105,1.0,2.0,57,0.00,,,0.00,weatherlink.com 1.10,2013-01-20 11:58:00,
2013-01-20 04:13:00,45.6,30.0,30.19,ENE,59,0.0,2.0,54,0.00,,,0.00,weatherlink.com 1.10,2013-01-20 12:13:00,
2013-01-20 04:28:00,45.9,28.0,30.19,SW,231,1.0,2.0,50,0.00,,,0.00,weatherlink.com 1.10,2013-01-20 12:28:00,
2013-01-20 04:43:00,44.5,34.0,30.19,ESE,103,1.0,2.0,67,0.00,,,0.00,weatherlink.com 1.10,2013-01-20 12:43:00,
2013-01-20 04:58:00,50.0,28.0,30.18,East,85,4.0,4.0,43,0.00,,,0.00,weatherlink.com 1.10,2013-01-20 12:58:00,
2013-01-20 05:13:00,52.9,28.0,30.18,ESE,109,2.0,5.0,39,0.00,,,0.00,weatherlink.com 1.10,2013-01-20 13:13:00,
2013-01-20 05:28:00,53.6,30.0,30.18,SSE,150,2.0,4.0,40,0.00,,,0.00,weatherlink.com 1.10,2013-01-20 13:28:00,
2013-01-20 05:43:00,54.1,30.0,30.18,East,82,7.0,7.0,40,0.00,,,0.00,weatherlink.com 1.10,2013-01-20 13:43:00,
2013-01-20 05:58:00,54.1,31.0,30.18,East,101,5.0,12.0,41,0.00,,,0.00,weatherlink.com 1.10,2013-01-20 13:58:00,
2013-01-20 06:13:00,53.9,31.0,30.18,East,101,7.0,11.0,42,0.00,,,0.00,weatherlink.com 1.10,2013-01-20 14:13:00,
2013-01-20 06:28:00,53.7,30.0,30.18,ESE,107,3.0,10.0,41,0.00,,,0.00,weatherlink.com 1.10,2013-01-20 14:28:00,
2013-01-20 06:43:00,53.8,30.0,30.18,SE,139,4.0,10.0,41,0.00,,,0.00,weatherlink.com 1.10,2013-01-20 14:43:00,
2013-01-20 06:58:00,53.4,30.0,30.18,SSW,205,2.0,6.0,41,0.00,,,0.00,weatherlink.com 1.10,2013-01-20 14:58:00,
2013-01-20 07:13:00,53.3,29.0,30.18,WSW,248,2.0,8.0,40,0.00,,,0.00,weatherlink.com 1.10,2013-01-20 15:13:00,
2013-01-20 07:28:00,51.5,30.0,30.18,WSW,238,2.0,4.0,44,0.00,,,0.00,weatherlink.com 1.10,2013-01-20 15:28:00,
2013-01-20 07:43:00,51.2,28.0,30.18,ENE,72,2.0,7.0,41,0.00,,,0.00,weatherlink.com 1.10,2013-01-20 15:43:00,
2013-01-20 07:58:00,52.9,27.0,30.18,SSE,155,4.0,9.0,37,0.00,,,0.00,weatherlink.com 1.10,2013-01-20 15:58:00,
2013-01-20 08:13:00,53.9,28.0,30.18,NE,53,2.0,11.0,37,0.00,,,0.00,weatherlink.com 1.10,2013-01-20 16:13:00,
2013-01-20 08:28:00,53.8,29.0,30.18,East,86,9.0,14.0,39,0.00,,,0.00,weatherlink.com 1.10,2013-01-20 16:28:00,
2013-01-20 08:43:00,54.0,28.0,30.19,ESE,108,6.0,12.0,37,0.00,,,0.00,weatherlink.com 1.10,2013-01-20 16:43:00,
2013-01-20 09:13:00,55.0,28.0,30.20,East,97,3.0,11.0,35,0.00,,,0.00,weatherlink.com 1.10,2013-01-20 17:13:00,
2013-01-20 09:29:00,55.6,27.0,30.20,East,91,5.0,13.0,34,0.00,,,0.00,weatherlink.com 1.10,2013-01-20 17:29:00,
2013-01-20 09:43:00,56.3,28.0,30.20,East,95,2.0,12.0,34,0.00,,,0.00,weatherlink.com 1.10,2013-01-20 17:43:00,
2013-01-20 09:58:00,56.8,28.0,30.20,East,89,7.0,9.0,33,0.00,,,0.00,weatherlink.com 1.10,2013-01-20 17:58:00,
2013-01-20 10:13:00,57.6,29.0,30.21,ESE,108,5.0,10.0,33,0.00,,,0.00,weatherlink.com 1.10,2013-01-20 18:13:00,
2013-01-20 10:29:00,58.3,28.0,30.20,ESE,108,4.0,11.0,31,0.00,,,0.00,weatherlink.com 1.10,2013-01-20 18:29:00,
2013-01-20 10:44:00,58.7,28.0,30.20,East,84,3.0,14.0,31,0.00,,,0.00,weatherlink.com 1.10,2013-01-20 18:44:00,
2013-01-20 10:59:00,59.5,29.0,30.19,NE,43,4.0,17.0,31,0.00,,,0.00,weatherlink.com 1.10,2013-01-20 18:59:00,
2013-01-20 11:14:00,59.6,27.0,30.19,East,81,8.0,12.0,29,0.00,,,0.00,weatherlink.com 1.10,2013-01-20 19:14:00,
2013-01-20 11:29:00,60.1,28.0,30.18,East,91,6.0,12.0,29,0.00,,,0.00,weatherlink.com 1.10,2013-01-20 19:29:00,
2013-01-20 11:44:00,60.0,28.0,30.18,NE,53,9.0,15.0,30,0.00,,,0.00,weatherlink.com 1.10,2013-01-20 19:44:00,
2013-01-20 11:59:00,60.5,29.0,30.17,SE,128,4.0,14.0,30,0.00,,,0.00,weatherlink.com 1.10,2013-01-20 19:59:00,
2013-01-20 12:14:00,60.9,28.0,30.16,ESE,103,8.0,12.0,29,0.00,,,0.00,weatherlink.com 1.10,2013-01-20 20:14:00,
2013-01-20 12:29:00,60.9,29.0,30.15,East,84,4.0,12.0,30,0.00,,,0.00,weatherlink.com 1.10,2013-01-20 20:29:00,
2013-01-20 12:44:00,61.8,30.0,30.14,ENE,63,8.0,10.0,30,0.00,,,0.00,weatherlink.com 1.10,2013-01-20 20:44:00,
2013-01-20 12:59:00,61.6,30.0,30.14,SE,143,3.0,12.0,30,0.00,,,0.00,weatherlink.com 1.10,2013-01-20 20:59:00,
2013-01-20 13:14:00,61.8,30.0,30.13,ENE,70,6.0,13.0,30,0.00,,,0.00,weatherlink.com 1.10,2013-01-20 21:14:00,
2013-01-20 13:29:00,61.6,30.0,30.13,East,88,7.0,14.0,30,0.00,,,0.00,weatherlink.com 1.10,2013-01-20 21:29:00,
2013-01-20 13:44:00,61.8,30.0,30.12,ENE,60,5.0,15.0,30,0.00,,,0.00,weatherlink.com 1.10,2013-01-20 21:44:00,
2013-01-20 13:59:00,62.0,31.0,30.12,NE,52,6.0,13.0,31,0.00,,,0.00,weatherlink.com 1.10,2013-01-20 21:59:00,
2013-01-20 14:14:00,62.7,31.0,30.11,NE,41,7.0,10.0,31,0.00,,,0.00,weatherlink.com 1.10,2013-01-20 22:14:00,
2013-01-20 14:29:00,63.2,30.0,30.11,NE,45,6.0,14.0,29,0.00,,,0.00,weatherlink.com 1.10,2013-01-20 22:29:00,
2013-01-20 14:44:00,62.9,30.0,30.11,ENE,60,6.0,12.0,29,0.00,,,0.00,weatherlink.com 1.10,2013-01-20 22:44:00,
2013-01-20 14:59:00,62.6,30.0,30.11,East,92,7.0,13.0,29,0.00,,,0.00,weatherlink.com 1.10,2013-01-20 22:59:00,
2013-01-20 15:14:00,62.8,30.0,30.11,NE,49,6.0,10.0,29,0.00,,,0.00,weatherlink.com 1.10,2013-01-20 23:14:00,
2013-01-20 15:29:00,62.8,30.0,30.12,East,89,8.0,11.0,29,0.00,,,0.00,weatherlink.com 1.10,2013-01-20 23:29:00,
2013-01-20 15:44:00,63.2,29.0,30.12,ENE,74,5.0,9.0,28,0.00,,,0.00,weatherlink.com 1.10,2013-01-20 23:44:00,
2013-01-20 15:59:00,62.9,29.0,30.12,NNE,32,4.0,11.0,28,0.00,,,0.00,weatherlink.com 1.10,2013-01-20 23:59:00,
2013-01-20 16:14:00,62.6,31.0,30.12,ENE,60,6.0,10.0,30,0.00,,,0.00,weatherlink.com 1.10,2013-01-21 00:14:00,
2013-01-20 16:29:00,62.4,30.0,30.12,ENE,60,3.0,10.0,30,0.00,,,0.00,weatherlink.com 1.10,2013-01-21 00:29:00,
2013-01-20 16:44:00,61.6,30.0,30.12,NE,43,7.0,9.0,30,0.00,,,0.00,weatherlink.com 1.10,2013-01-21 00:44:00,
2013-01-20 16:59:00,60.7,29.0,30.12,NE,55,5.0,10.0,30,0.00,,,0.00,weatherlink.com 1.10,2013-01-21 00:59:00,
2013-01-20 17:14:00,59.8,27.0,30.11,East,98,3.0,13.0,29,0.00,,,0.00,weatherlink.com 1.10,2013-01-21 01:14:00,
2013-01-20 17:29:00,58.8,26.0,30.11,ESE,113,5.0,11.0,29,0.00,,,0.00,weatherlink.com 1.10,2013-01-21 01:29:00,
2013-01-20 17:44:00,58.7,26.0,30.11,NE,51,9.0,10.0,29,0.00,,,0.00,weatherlink.com 1.10,2013-01-21 01:44:00,
2013-01-20 17:59:00,58.9,26.0,30.11,East,94,7.0,10.0,28,0.00,,,0.00,weatherlink.com 1.10,2013-01-21 01:59:00,
2013-01-20 18:14:00,57.8,26.0,30.12,NNE,26,1.0,3.0,30,0.00,,,0.00,weatherlink.com 1.10,2013-01-21 02:14:00,
2013-01-20 18:29:00,56.5,27.0,30.13,East,101,2.0,2.0,32,0.00,,,0.00,weatherlink.com 1.10,2013-01-21 02:29:00,
2013-01-20 18:44:00,56.5,25.0,30.13,SSW,193,0.0,2.0,30,0.00,,,0.00,weatherlink.com 1.10,2013-01-21 02:44:00,
2013-01-20 18:59:00,57.4,24.0,30.12,ESE,103,4.0,8.0,28,0.00,,,0.00,weatherlink.com 1.10,2013-01-21 02:59:00,
2013-01-20 19:14:00,58.6,24.0,30.12,ESE,115,8.0,11.0,26,0.00,,,0.00,weatherlink.com 1.10,2013-01-21 03:14:00,
2013-01-20 19:29:00,59.1,23.0,30.13,SE,131,3.0,9.0,25,0.00,,,0.00,weatherlink.com 1.10,2013-01-21 03:29:00,
2013-01-20 19:44:00,58.9,23.0,30.14,SSW,203,2.0,10.0,25,0.00,,,0.00,weatherlink.com 1.10,2013-01-21 03:44:00,
2013-01-20 19:59:00,57.8,23.0,30.14,SW,232,2.0,5.0,26,0.00,,,0.00,weatherlink.com 1.10,2013-01-21 03:59:00,
2013-01-20 20:14:00,55.6,25.0,30.14,SW,221,0.0,1.0,31,0.00,,,0.00,weatherlink.com 1.10,2013-01-21 04:14:00,
2013-01-20 20:30:00,54.7,24.0,30.14,ESE,105,1.0,3.0,30,0.00,,,0.00,weatherlink.com 1.10,2013-01-21 04:30:00,
2013-01-20 20:45:00,54.6,24.0,30.14,ENE,68,2.0,5.0,30,0.00,,,0.00,weatherlink.com 1.10,2013-01-21 04:45:00,
2013-01-20 21:00:00,54.4,24.0,30.14,NNE,30,1.0,3.0,31,0.00,,,0.00,weatherlink.com 1.10,2013-01-21 05:00:00,
2013-01-20 21:15:00,53.6,25.0,30.15,NE,50,3.0,4.0,33,0.00,,,0.00,weatherlink.com 1.10,2013-01-21 05:15:00,
2013-01-20 21:45:00,53.2,23.0,30.15,NE,46,3.0,4.0,31,0.00,,,0.00,weatherlink.com 1.10,2013-01-21 05:45:00,
2013-01-20 22:00:00,53.1,22.0,30.15,East,96,1.0,2.0,30,0.00,,,0.00,weatherlink.com 1.10,2013-01-21 06:00:00,
2013-01-20 22:15:00,53.9,23.0,30.15,SW,214,1.0,2.0,30,0.00,,,0.00,weatherlink.com 1.10,2013-01-21 06:15:00,
2013-01-20 22:30:00,52.2,24.0,30.15,ESE,105,1.0,1.0,33,0.00,,,0.00,weatherlink.com 1.10,2013-01-21 06:30:00,
2013-01-20 22:45:00,50.4,24.0,30.16,NNE,29,1.0,1.0,35,0.00,,,0.00,weatherlink.com 1.10,2013-01-21 06:45:00,
2013-01-20 23:00:00,50.8,24.0,30.15,NE,53,2.0,2.0,35,0.00,,,0.00,weatherlink.com 1.10,2013-01-21 07:00:00,
2013-01-20 23:15:00,50.9,24.0,30.15,East,89,1.0,2.0,35,0.00,,,0.00,weatherlink.com 1.10,2013-01-21 07:15:00,
2013-01-20 23:30:00,50.8,26.0,30.15,ENE,76,3.0,3.0,38,0.00,,,0.00,weatherlink.com 1.10,2013-01-21 07:30:00,
2013-01-20 23:45:00,50.0,24.0,30.14,East,86,2.0,3.0,37,0.00,,,0.00,weatherlink.com 1.10,2013-01-21 07:45:00,